Hauptseite
METAR-TAF:

METAR-TAF

Flughäfen :

Flughafen Alderney

Alderney,

Breite: 49-43N, Länge: 002-12W, Höhe: 71 m

Beobachtung

Neuester Wetterbericht von vor 3 Stunden und 11 Minuten, um 18:20 UTC
Wind 17 kt aus Ost/Nordost, Böen bis zu 31 kt
Temperatur 10°C
Luftfeuchtigkeit 82%
Luftdruck 1020 hPa
Sichtweite 10 km oder mehr
Leicht bewölkt in der Höhe von 2000 ft

METAR: EGJA 181820Z 07017G31KT 9999 FEW020 10/07 Q1020

Zeit: 21:31 (21:31 UTC)

Prognose

Neuester Wetterbericht von vor 7 Stunden und 29 Minuten, um 14:02 UTC
Gültige Prognose vom 18 um 15 UTC bis 18 um 24 UTC
Wind 20 kt aus Ost/Nordost, Böen bis zu 34 kt
Sichtweite 10 km oder mehr
keine Wolken unter 1500 m und keine Kumulonimbus oder Gewitterwolken

TAF: EGJA 181402Z 1815/1824 07020G34KT CAVOK

Wetterbeobachtungen und Prognosen von mehr als 4000 Flughäfen (METAR und TAF Bericht).

Die verfügbaren Stationen werden durch gelbe und rote Markierungen auf der Karte dargestellt.

Führen Sie die Maus auf sie, um den Namen der Station zu sehen.

Darauf klicken, um die Beobachtung von Wetterbeobachtungen und Prognosen zu sehen.

Um die Karte zu ändern : klicken Sie auf den grünen Tasten mit einem schwarzen Kreuz Zum Vergrößern, auf den grünen Button mit einem Gedankenstrich zu verkleinern, oder auf die grünen Pfeile für benachbarte Karten.


METAR-TAF: